Sharpsburg, North Carolina
Current Conditions -  °F | °C
As of 7:53 AM on Thursday 27 Nov 2014 (Local Time) from KRWI Reporting Station
Overcast Overcast  
Wind Chill: 40°   Ceiling: 8500
Heat Index: 40°   Visibility: 10mi
Dew Point: 38°   Wind: 0mph
Humidity: 93%   Direction: NA
Pressure: 30.03"   Gusts: NA
Location:  35.87°N, 77.83°W
Report Text: KRWI 271253Z AUTO 00000KT 10SM FEW030 SCT070 OVC085 04/03 A3003 RMK AO2 SLP171 P0001 T00440033
Loading
Personal Weather Stations






























Interactive Weather Map New forecast layout! Learn more

10-Day Weather Forecast

Advertisements
Track Severe Weather on mobile